createdAt,value
2022-07-25T00:01:05.509Z,22.16
2022-07-25T00:03:34.815Z,22.08
2022-07-25T00:06:02.510Z,21.91
2022-07-25T00:08:30.197Z,21.76
2022-07-25T00:10:59.263Z,21.84
2022-07-25T00:13:26.945Z,21.71
2022-07-25T00:15:55.788Z,21.81
2022-07-25T00:18:23.489Z,21.75
2022-07-25T00:20:51.270Z,21.79
2022-07-25T00:23:18.988Z,21.95
2022-07-25T00:25:46.755Z,21.95
2022-07-25T00:28:15.726Z,21.87
2022-07-25T00:30:43.413Z,21.93
2022-07-25T00:33:11.090Z,21.71
2022-07-25T00:35:38.810Z,21.67
2022-07-25T00:38:06.543Z,21.53
2022-07-25T00:40:34.876Z,21.45
2022-07-25T00:43:03.630Z,21.40
2022-07-25T00:45:32.658Z,21.31
2022-07-25T00:48:00.402Z,21.23
2022-07-25T00:50:28.126Z,21.14
2022-07-25T00:52:56.492Z,21.12
2022-07-25T00:55:24.801Z,21.03
2022-07-25T00:57:53.678Z,20.92
2022-07-25T01:00:21.509Z,20.80
2022-07-25T01:02:50.920Z,20.65
2022-07-25T01:05:18.800Z,20.53
2022-07-25T01:07:48.314Z,20.58
2022-07-25T01:10:16.067Z,20.32
2022-07-25T01:12:49.755Z,20.23
2022-07-25T01:15:18.592Z,20.16
2022-07-25T01:17:46.607Z,20.11
2022-07-25T01:20:17.058Z,20.03
2022-07-25T01:22:45.048Z,19.90
2022-07-25T01:25:13.635Z,19.90
2022-07-25T01:27:42.278Z,19.92
2022-07-25T01:30:13.260Z,19.89
2022-07-25T01:32:41.802Z,19.74
2022-07-25T01:35:11.009Z,19.69
2022-07-25T01:37:40.105Z,19.57
2022-07-25T01:40:13.668Z,19.54
2022-07-25T01:42:41.428Z,19.32
2022-07-25T01:45:10.329Z,19.55
2022-07-25T01:47:38.591Z,19.51
2022-07-25T01:50:09.157Z,19.36
2022-07-25T01:52:37.486Z,19.32
2022-07-25T01:55:08.146Z,19.24
2022-07-25T01:57:36.319Z,19.18
2022-07-25T02:00:05.318Z,19.11
2022-07-25T02:02:39.902Z,18.90
2022-07-25T02:05:08.637Z,19.01
2022-07-25T02:07:37.047Z,18.98
2022-07-25T02:10:08.382Z,18.89
2022-07-25T02:12:36.248Z,18.97
2022-07-25T02:15:03.999Z,18.75
2022-07-25T02:17:31.695Z,18.86
2022-07-25T02:19:59.382Z,18.90
2022-07-25T02:22:27.065Z,18.90
2022-07-25T02:24:54.795Z,18.69
2022-07-25T02:27:23.850Z,18.82
2022-07-25T02:29:51.523Z,18.71
2022-07-25T02:32:19.169Z,18.63
2022-07-25T02:34:46.812Z,18.53
2022-07-25T02:37:14.851Z,18.62
2022-07-25T02:39:42.619Z,18.51
2022-07-25T02:42:10.297Z,18.39
2022-07-25T02:44:39.326Z,18.33
2022-07-25T02:47:07.170Z,18.22
2022-07-25T02:49:34.928Z,18.06
2022-07-25T02:52:02.624Z,18.22
2022-07-25T02:54:30.321Z,18.11
2022-07-25T02:56:58.070Z,18.14
2022-07-25T02:59:25.804Z,18.00
2022-07-25T03:02:01.451Z,18.17
2022-07-25T03:04:31.027Z,18.11
2022-07-25T03:06:58.803Z,17.90
2022-07-25T03:09:26.548Z,17.94
2022-07-25T03:11:54.236Z,17.83
2022-07-25T03:14:21.941Z,17.97
2022-07-25T03:16:49.637Z,17.90
2022-07-25T03:19:18.645Z,17.92
2022-07-25T03:21:46.384Z,17.85
2022-07-25T03:24:14.104Z,17.90
2022-07-25T03:26:41.802Z,17.77
2022-07-25T03:29:09.534Z,17.85
2022-07-25T03:31:37.347Z,17.82
2022-07-25T03:34:06.086Z,17.80
2022-07-25T03:36:35.617Z,17.80
2022-07-25T03:39:05.559Z,17.61
2022-07-25T03:41:33.478Z,17.60
2022-07-25T03:44:01.202Z,17.76
2022-07-25T03:46:29.026Z,17.54
2022-07-25T03:48:56.881Z,17.73
2022-07-25T22:57:07.856Z,19.57
2022-07-25T22:59:35.560Z,19.71
2022-07-25T23:02:03.256Z,19.54
2022-07-25T23:04:31.045Z,19.70
2022-07-25T23:06:58.799Z,19.59
2022-07-25T23:09:36.451Z,19.68
2022-07-25T23:12:04.902Z,19.58
2022-07-25T23:14:33.985Z,19.60
2022-07-25T23:17:19.983Z,19.50
2022-07-25T23:19:49.230Z,19.38
2022-07-25T23:22:17.525Z,19.18
2022-07-25T23:24:45.243Z,18.97
2022-07-25T23:27:13.134Z,18.95
2022-07-25T23:29:42.306Z,18.92
2022-07-25T23:32:10.442Z,18.86
2022-07-25T23:34:38.095Z,18.80
2022-07-25T23:37:05.781Z,18.84
2022-07-25T23:39:33.646Z,18.87
2022-07-25T23:42:01.746Z,18.86
2022-07-25T23:44:29.607Z,18.94
2022-07-25T23:46:59.837Z,19.04
2022-07-25T23:49:29.301Z,19.19
2022-07-25T23:51:57.503Z,19.33
2022-07-25T23:54:25.728Z,19.37
2022-07-25T23:56:53.734Z,19.37
2022-07-25T23:59:21.437Z,19.32
